Time;durP1;ratioP1;P1;durP2;ratioP2;P2;SDS_P1;SDS_P2;PMS_P1;PMS_P2;Temp;Humidity;BMP_temperature;BMP_pressure;BME280_temperature;BME280_humidity;BME280_pressure;Samples;Min_cycle;Max_cycle;Signal;HPM_P1;HPM_P2
2021/11/07 00:07:10;;;;;;;13.57;8.13;;;22.20;49.90;;;;;;5262385;28;20505;-52
2021/11/07 00:11:39;;;;;;;12.40;7.60;;;22.20;49.10;;;;;;5244365;27;20031;-54
2021/11/07 00:14:12;;;;;;;13.23;7.70;;;22.20;49.20;;;;;;5267147;28;20044;-50
2021/11/07 00:16:45;;;;;;;10.48;7.97;;;22.20;49.30;;;;;;5249384;28;20050;-49
2021/11/07 00:19:31;;;;;;;15.80;7.53;;;22.20;49.20;;;;;;5255622;28;20507;-50
2021/11/07 00:24:47;;;;;;;21.17;8.70;;;22.20;49.40;;;;;;5246807;28;20074;-53
2021/11/07 00:27:26;;;;;;;12.85;7.50;;;22.20;49.10;;;;;;5256128;28;20094;-51
2021/11/07 00:30:15;;;;;;;15.30;7.72;;;22.20;49.00;;;;;;5245521;28;20055;-54
2021/11/07 00:38:21;;;;;;;11.45;7.00;;;22.20;49.00;;;;;;5198311;28;20883;-55
2021/11/07 00:43:39;;;;;;;10.55;6.25;;;22.20;48.90;;;;;;5207944;28;20662;-54
2021/11/07 00:46:21;;;;;;;11.45;6.93;;;22.20;48.90;;;;;;5199599;28;20708;-50
2021/11/07 00:48:59;;;;;;;9.02;6.82;;;22.20;48.80;;;;;;5209872;28;20082;-55
2021/11/07 00:54:25;;;;;;;8.10;5.93;;;22.20;48.80;;;;;;5210816;28;20043;-50
2021/11/07 00:57:02;;;;;;;8.20;6.13;;;22.20;48.80;;;;;;5245442;28;20063;-55
2021/11/07 00:59:45;;;;;;;9.07;6.32;;;22.20;48.80;;;;;;5253301;28;20040;-51
2021/11/07 01:02:42;;;;;;;10.37;6.00;;;22.20;48.80;;;;;;5215402;28;20969;-52
2021/11/07 01:05:22;;;;;;;7.88;6.28;;;22.20;48.90;;;;;;5234816;28;20403;-52
2021/11/07 01:07:56;;;;;;;10.25;5.15;;;22.20;48.80;;;;;;5256392;28;20390;-48
2021/11/07 01:10:30;;;;;;;7.63;5.50;;;22.20;48.90;;;;;;5252890;28;20047;-54
2021/11/07 01:13:03;;;;;;;7.75;5.47;;;22.10;48.70;;;;;;5247697;28;20051;-53
2021/11/07 01:15:37;;;;;;;10.45;5.30;;;22.10;48.80;;;;;;5248830;28;20055;-48
2021/11/07 01:18:09;;;;;;;6.30;5.10;;;22.10;48.70;;;;;;5259729;28;20413;-50
2021/11/07 01:20:41;;;;;;;8.68;5.72;;;22.10;48.80;;;;;;5233138;28;20040;-53
2021/11/07 01:27:07;;;;;;;7.57;5.10;;;22.10;48.80;;;;;;5175570;28;20501;-49
2021/11/07 01:31:47;;;;;;;7.85;5.07;;;22.10;48.70;;;;;;5245819;28;20055;-48
2021/11/07 01:37:01;;;;;;;6.15;5.13;;;22.10;48.80;;;;;;5252818;28;20525;-53
2021/11/07 01:39:48;;;;;;;7.57;5.00;;;22.10;48.70;;;;;;5261573;28;20483;-55
2021/11/07 01:42:34;;;;;;;5.75;4.57;;;22.10;48.70;;;;;;5259978;28;20052;-57
2021/11/07 01:45:22;;;;;;;8.32;4.95;;;22.10;48.70;;;;;;5243324;28;20056;-58
2021/11/07 01:48:04;;;;;;;7.18;5.22;;;22.10;48.80;;;;;;5249797;28;21500;-54
2021/11/07 01:50:42;;;;;;;5.15;4.57;;;22.10;48.90;;;;;;5246270;28;20048;-53
2021/11/07 01:53:24;;;;;;;8.40;5.13;;;22.10;48.80;;;;;;5255008;28;20040;-51
2021/11/07 01:55:59;;;;;;;9.13;4.78;;;22.10;48.80;;;;;;5254750;28;20513;-55
2021/11/07 01:58:33;;;;;;;10.85;4.88;;;22.10;48.90;;;;;;5236846;28;20111;-51
2021/11/07 02:01:07;;;;;;;8.75;4.85;;;22.10;48.90;;;;;;5238385;28;20063;-48
2021/11/07 02:03:39;;;;;;;;;;;22.10;49.00;;;;;;5256212;28;20039;-55
2021/11/07 02:06:12;;;;;;;8.05;4.40;;;22.00;48.90;;;;;;5258330;28;20299;-52
2021/11/07 02:08:45;;;;;;;4.90;4.00;;;22.00;49.00;;;;;;5248175;28;20059;-53
2021/11/07 02:11:18;;;;;;;5.15;4.25;;;22.00;49.00;;;;;;5257872;28;20447;-51
2021/11/07 02:13:51;;;;;;;7.28;4.20;;;22.10;49.00;;;;;;5255085;28;20060;-52
2021/11/07 02:16:23;;;;;;;6.60;4.13;;;22.00;49.00;;;;;;5251212;28;20050;-51
2021/11/07 02:18:56;;;;;;;7.18;4.05;;;22.00;49.00;;;;;;5262298;28;20055;-51
2021/11/07 02:21:29;;;;;;;7.18;4.38;;;22.10;49.10;;;;;;5265723;28;20389;-52
2021/11/07 02:24:02;;;;;;;9.20;4.35;;;22.00;49.10;;;;;;5260795;28;20052;-55
2021/11/07 02:26:35;;;;;;;5.60;3.73;;;22.00;49.10;;;;;;5259353;28;20051;-55
2021/11/07 02:29:07;;;;;;;5.25;4.10;;;22.00;49.10;;;;;;5229735;28;20672;-50
2021/11/07 02:31:40;;;;;;;6.80;5.05;;;22.00;49.10;;;;;;5232129;28;20048;-54
2021/11/07 02:34:13;;;;;;;6.03;4.07;;;22.00;49.00;;;;;;5226611;28;20056;-51
2021/11/07 02:36:46;;;;;;;5.45;3.97;;;22.00;49.10;;;;;;5236081;28;20637;-53
2021/11/07 02:39:20;;;;;;;5.28;3.95;;;22.00;49.10;;;;;;5229426;28;20044;-54
2021/11/07 02:41:53;;;;;;;4.60;3.83;;;22.00;49.10;;;;;;5224539;28;20058;-53
2021/11/07 02:44:37;;;;;;;4.93;3.90;;;22.00;49.00;;;;;;5232497;28;20044;-52
2021/11/07 02:47:10;;;;;;;;;;;22.00;49.00;;;;;;5232155;28;20297;-52
2021/11/07 02:49:44;;;;;;;4.70;3.40;;;21.90;49.00;;;;;;5227854;28;19927;-53
2021/11/07 02:52:17;;;;;;;3.90;3.50;;;22.00;49.10;;;;;;5230204;27;20058;-57
2021/11/07 02:54:50;;;;;;;6.83;4.00;;;22.00;49.10;;;;;;5221320;27;20044;-55
2021/11/07 02:57:23;;;;;;;4.18;3.67;;;22.00;49.20;;;;;;5230496;28;20044;-50
2021/11/07 02:59:59;;;;;;;4.30;3.70;;;22.00;49.20;;;;;;5230283;28;20042;-51
2021/11/07 03:02:32;;;;;;;5.32;3.70;;;22.00;49.40;;;;;;5235731;28;20046;-55
2021/11/07 03:05:09;;;;;;;4.15;3.55;;;22.00;49.20;;;;;;5227751;28;20663;-54
2021/11/07 03:07:43;;;;;;;4.85;3.65;;;22.00;49.20;;;;;;5220159;28;20054;-51
2021/11/07 03:10:17;;;;;;;4.78;3.72;;;22.00;49.80;;;;;;5215515;28;20039;-56
2021/11/07 03:13:09;;;;;;;4.50;3.53;;;22.00;49.20;;;;;;5222312;28;20043;-57
2021/11/07 03:15:42;;;;;;;4.65;3.50;;;22.00;49.10;;;;;;5230443;28;20040;-49
2021/11/07 03:18:15;;;;;;;6.35;3.92;;;21.90;49.10;;;;;;5228151;28;20861;-57
2021/11/07 03:20:47;;;;;;;4.10;3.37;;;22.00;49.10;;;;;;5243205;28;20054;-57
2021/11/07 03:23:22;;;;;;;8.40;3.35;;;22.00;49.00;;;;;;5203740;28;20044;-56
2021/11/07 03:26:06;;;;;;;4.95;3.53;;;22.00;49.10;;;;;;5229908;28;20055;-51
2021/11/07 03:28:40;;;;;;;4.63;3.28;;;22.00;49.30;;;;;;5211483;28;20695;-54
2021/11/07 03:31:22;;;;;;;4.63;3.08;;;22.00;49.30;;;;;;5227745;28;20052;-54
2021/11/07 03:33:58;;;;;;;6.10;3.67;;;22.00;49.40;;;;;;5231673;27;20051;-50
2021/11/07 03:36:46;;;;;;;6.97;3.10;;;22.00;49.60;;;;;;5229466;27;20047;-49
2021/11/07 03:39:22;;;;;;;7.90;3.40;;;22.00;49.70;;;;;;5198678;28;20605;-55
2021/11/07 03:41:56;;;;;;;3.50;2.70;;;22.00;49.80;;;;;;5201013;28;20066;-54
2021/11/07 03:44:28;;;;;;;;;;;22.00;49.90;;;;;;5215662;28;20043;-55
2021/11/07 03:47:02;;;;;;;8.07;3.30;;;22.00;50.10;;;;;;5220126;28;20387;-54
2021/11/07 03:49:36;;;;;;;;;;;22.00;50.10;;;;;;5221255;28;20423;-56
2021/11/07 03:52:10;;;;;;;4.97;3.85;;;21.90;50.20;;;;;;5229639;28;19935;-57
2021/11/07 03:54:43;;;;;;;11.85;2.95;;;22.00;50.30;;;;;;5220672;28;20464;-57
2021/11/07 03:57:15;;;;;;;11.30;3.80;;;22.00;50.40;;;;;;5219805;28;20518;-56
2021/11/07 03:59:49;;;;;;;5.93;2.83;;;22.00;50.40;;;;;;5219677;28;20703;-50
2021/11/07 04:02:21;;;;;;;;;;;22.00;50.50;;;;;;5222932;28;20058;-57
2021/11/07 04:04:54;;;;;;;3.63;2.90;;;22.00;50.60;;;;;;5212451;28;19928;-55
2021/11/07 04:07:26;;;;;;;10.93;3.10;;;22.00;50.70;;;;;;5210840;28;20416;-53
2021/11/07 04:09:59;;;;;;;7.13;3.25;;;22.00;50.80;;;;;;5198999;28;20066;-57
2021/11/07 04:12:31;;;;;;;6.45;3.08;;;22.00;50.80;;;;;;5228057;28;20058;-57
2021/11/07 04:15:05;;;;;;;5.05;2.78;;;22.00;50.90;;;;;;5225137;28;20055;-57
2021/11/07 04:17:38;;;;;;;;;;;22.00;50.90;;;;;;5228263;28;20614;-52
2021/11/07 04:20:12;;;;;;;6.13;3.00;;;22.00;51.00;;;;;;5228494;28;20009;-57
2021/11/07 04:22:46;;;;;;;6.70;3.08;;;22.00;51.00;;;;;;5210717;28;20527;-55
2021/11/07 04:25:19;;;;;;;6.15;2.95;;;22.00;51.10;;;;;;5219223;28;20040;-54
2021/11/07 04:27:52;;;;;;;3.78;2.83;;;22.00;51.10;;;;;;5230729;28;20783;-57
2021/11/07 04:30:24;;;;;;;4.10;2.92;;;22.00;51.10;;;;;;5229122;28;20052;-55
2021/11/07 04:32:57;;;;;;;6.70;2.70;;;22.00;51.10;;;;;;5213959;28;20047;-55
2021/11/07 04:35:29;;;;;;;6.03;2.58;;;22.10;51.20;;;;;;5217880;28;20058;-52
2021/11/07 04:38:02;;;;;;;7.50;3.33;;;22.10;51.20;;;;;;5210900;28;20043;-54
2021/11/07 04:40:35;;;;;;;5.40;3.00;;;22.10;51.20;;;;;;5213345;28;20500;-54
2021/11/07 04:43:08;;;;;;;19.60;3.45;;;22.10;51.30;;;;;;5241398;28;20040;-56
2021/11/07 04:45:40;;;;;;;3.90;3.00;;;22.10;51.30;;;;;;5223991;28;20040;-55
2021/11/07 04:48:13;;;;;;;6.82;2.88;;;22.10;51.30;;;;;;5207448;28;20692;-55
2021/11/07 04:50:47;;;;;;;5.88;2.67;;;22.10;51.40;;;;;;5209456;28;20040;-57
2021/11/07 04:53:22;;;;;;;3.60;2.63;;;22.10;51.40;;;;;;5192814;28;20047;-54
2021/11/07 04:55:55;;;;;;;6.60;2.45;;;22.10;51.40;;;;;;5218292;27;20040;-54
2021/11/07 04:58:27;;;;;;;6.32;2.72;;;22.10;51.40;;;;;;5225757;28;20680;-54
2021/11/07 05:01:00;;;;;;;4.60;3.13;;;22.10;51.50;;;;;;5222184;28;20050;-55
2021/11/07 05:03:33;;;;;;;6.00;2.88;;;22.10;51.50;;;;;;5212611;28;20381;-56
2021/11/07 05:06:06;;;;;;;5.23;3.07;;;22.10;51.50;;;;;;5212383;28;21365;-55
2021/11/07 05:08:39;;;;;;;3.53;2.58;;;22.10;51.50;;;;;;5214233;28;20289;-57
2021/11/07 05:11:11;;;;;;;4.38;2.65;;;22.10;51.60;;;;;;5223359;28;20047;-57
2021/11/07 05:13:44;;;;;;;4.47;2.95;;;22.10;51.60;;;;;;5216741;28;20052;-52
2021/11/07 05:16:16;;;;;;;4.85;2.67;;;22.10;51.70;;;;;;5209262;28;20045;-54
2021/11/07 05:18:49;;;;;;;6.35;2.80;;;22.10;51.70;;;;;;5213121;28;21560;-57
2021/11/07 05:21:23;;;;;;;7.10;2.90;;;22.10;51.70;;;;;;5217309;28;20055;-57
2021/11/07 05:23:56;;;;;;;;;;;22.10;51.80;;;;;;5208714;28;20043;-55
2021/11/07 05:26:28;;;;;;;5.07;2.40;;;22.10;51.90;;;;;;5215807;28;20030;-56
2021/11/07 05:29:05;;;;;;;10.23;3.80;;;22.10;51.90;;;;;;5200586;28;20598;-57
2021/11/07 05:31:37;;;;;;;5.75;2.88;;;22.10;52.40;;;;;;5211989;28;20048;-53
2021/11/07 05:34:10;;;;;;;4.35;2.50;;;22.10;52.00;;;;;;5216968;28;20056;-52
2021/11/07 05:36:44;;;;;;;4.68;2.53;;;22.10;52.00;;;;;;5217462;28;20454;-55
2021/11/07 05:39:18;;;;;;;5.32;2.25;;;22.20;52.10;;;;;;5213497;28;20063;-58
2021/11/07 05:41:50;;;;;;;4.30;2.65;;;22.20;52.10;;;;;;5211957;28;20427;-52
2021/11/07 05:44:23;;;;;;;8.32;2.80;;;22.20;52.10;;;;;;5216435;28;20043;-54
2021/11/07 05:46:56;;;;;;;4.65;2.97;;;22.20;52.00;;;;;;5221875;28;20047;-55
2021/11/07 05:49:28;;;;;;;5.97;2.65;;;22.30;52.10;;;;;;5197303;28;20567;-54
2021/11/07 05:52:01;;;;;;;6.47;2.28;;;22.30;52.00;;;;;;5217971;28;21763;-52
2021/11/07 05:54:34;;;;;;;4.93;2.85;;;22.30;52.00;;;;;;5195829;28;20526;-52
2021/11/07 05:57:06;;;;;;;4.82;2.58;;;22.30;52.00;;;;;;5195537;28;20508;-54
2021/11/07 05:59:39;;;;;;;5.50;3.03;;;22.30;52.10;;;;;;5224271;28;20063;-51
2021/11/07 06:02:11;;;;;;;8.98;2.85;;;22.30;52.00;;;;;;5218471;28;20036;-54
2021/11/07 06:04:44;;;;;;;5.95;2.80;;;22.30;52.00;;;;;;5215152;28;20040;-57
2021/11/07 06:07:17;;;;;;;5.57;2.95;;;22.40;52.10;;;;;;5226879;28;20644;-55
2021/11/07 06:09:49;;;;;;;5.03;2.60;;;22.40;52.10;;;;;;5207009;28;20054;-56
2021/11/07 06:12:23;;;;;;;4.45;2.58;;;22.40;52.10;;;;;;5214879;28;20180;-48
2021/11/07 06:14:55;;;;;;;4.65;3.05;;;22.40;52.10;;;;;;5215948;28;20043;-57
2021/11/07 06:17:28;;;;;;;4.72;2.60;;;22.40;52.10;;;;;;5223841;28;20044;-52
2021/11/07 06:20:00;;;;;;;6.85;2.70;;;22.40;52.10;;;;;;5228177;28;20486;-55
2021/11/07 06:22:33;;;;;;;7.18;2.72;;;22.40;52.10;;;;;;5228805;28;20055;-52
2021/11/07 06:25:06;;;;;;;6.83;2.50;;;22.40;52.10;;;;;;5211181;28;20530;-51
2021/11/07 06:27:38;;;;;;;8.55;2.60;;;22.50;52.10;;;;;;5211359;28;20588;-51
2021/11/07 06:30:12;;;;;;;6.10;2.88;;;22.50;52.10;;;;;;5207594;28;20330;-54
2021/11/07 06:32:44;;;;;;;6.00;2.20;;;22.50;52.10;;;;;;5223205;28;20227;-57
2021/11/07 06:35:17;;;;;;;6.80;2.20;;;22.50;52.10;;;;;;5216461;28;21457;-54
2021/11/07 06:37:50;;;;;;;4.90;2.90;;;22.50;52.10;;;;;;5208930;28;20051;-54
2021/11/07 06:40:22;;;;;;;3.97;2.78;;;22.50;52.20;;;;;;5221530;28;20534;-52
2021/11/07 06:42:55;;;;;;;2.72;2.17;;;22.50;52.10;;;;;;5213667;28;20082;-52
2021/11/07 06:45:27;;;;;;;3.60;2.55;;;22.50;52.10;;;;;;5209595;28;20054;-52
2021/11/07 06:48:00;;;;;;;8.32;2.50;;;22.60;52.20;;;;;;5228689;28;20047;-58
2021/11/07 06:50:33;;;;;;;9.05;2.47;;;22.50;52.20;;;;;;5219840;28;20074;-51
2021/11/07 06:53:06;;;;;;;11.57;2.53;;;22.50;52.20;;;;;;5207913;28;20367;-54
2021/11/07 06:55:38;;;;;;;6.38;2.40;;;22.50;52.30;;;;;;5218062;28;20051;-57
2021/11/07 06:58:11;;;;;;;4.97;2.30;;;22.50;52.30;;;;;;5232000;28;20055;-52
2021/11/07 07:00:43;;;;;;;7.75;2.40;;;22.60;52.40;;;;;;5238550;28;20040;-52
2021/11/07 07:03:18;;;;;;;8.80;2.30;;;22.60;52.40;;;;;;5203731;28;20052;-57
2021/11/07 07:05:50;;;;;;;5.40;2.65;;;22.60;52.40;;;;;;5194274;28;20055;-47
2021/11/07 07:08:25;;;;;;;4.28;2.17;;;22.60;52.40;;;;;;5201616;28;20039;-51
2021/11/07 07:11:00;;;;;;;8.90;2.30;;;22.60;52.40;;;;;;5215597;28;20758;-55
2021/11/07 07:13:59;;;;;;;5.22;2.80;;;22.60;52.40;;;;;;5186728;28;22100;-53
2021/11/07 07:16:46;;;;;;;6.80;2.47;;;22.60;52.50;;;;;;5225838;28;20044;-57
2021/11/07 07:19:35;;;;;;;6.97;2.67;;;22.60;52.50;;;;;;5195569;28;20047;-57
2021/11/07 07:27:54;;;;;;;6.25;2.65;;;22.60;52.60;;;;;;5214024;28;20059;-53
2021/11/07 07:30:48;;;;;;;5.70;2.70;;;22.60;52.60;;;;;;5211800;28;20075;-54
2021/11/07 07:35:56;;;;;;;8.13;2.38;;;22.60;52.70;;;;;;5210271;28;20056;-55
2021/11/07 07:38:29;;;;;;;9.40;2.63;;;22.70;52.70;;;;;;5208321;28;20139;-56
2021/11/07 07:41:02;;;;;;;11.45;3.00;;;22.60;52.70;;;;;;5211099;28;20385;-53
2021/11/07 07:43:34;;;;;;;9.02;2.75;;;22.60;52.70;;;;;;5208922;28;20048;-54
2021/11/07 07:46:12;;;;;;;20.58;4.22;;;22.70;52.90;;;;;;5199652;28;20066;-55
2021/11/07 07:48:46;;;;;;;11.25;2.55;;;22.70;52.90;;;;;;5217186;28;20519;-54
2021/11/07 07:51:19;;;;;;;8.45;2.78;;;22.70;52.90;;;;;;5211511;28;20047;-58
2021/11/07 07:53:51;;;;;;;12.20;3.33;;;22.70;53.00;;;;;;5207758;27;20048;-54
2021/11/07 07:56:25;;;;;;;14.20;3.92;;;22.70;53.00;;;;;;5208015;28;22132;-53
2021/11/07 07:58:59;;;;;;;10.95;3.47;;;22.70;53.00;;;;;;5214704;28;20048;-55
2021/11/07 08:01:33;;;;;;;8.75;2.88;;;22.70;52.90;;;;;;5213381;28;21658;-53
2021/11/07 08:04:06;;;;;;;10.63;2.95;;;22.70;52.90;;;;;;5203384;27;20056;-56
2021/11/07 08:06:38;;;;;;;9.68;3.45;;;22.70;53.00;;;;;;5208188;28;20048;-54
2021/11/07 08:09:11;;;;;;;7.78;2.92;;;22.70;52.90;;;;;;5211821;28;20063;-57
2021/11/07 08:11:43;;;;;;;13.90;3.17;;;22.70;52.90;;;;;;5210646;28;20047;-55
2021/11/07 08:14:16;;;;;;;7.50;3.03;;;22.70;52.90;;;;;;5208744;27;20538;-56
2021/11/07 08:16:49;;;;;;;9.45;2.45;;;22.70;53.00;;;;;;5213863;28;20062;-56
2021/11/07 08:19:21;;;;;;;8.20;2.63;;;22.70;53.00;;;;;;5198979;28;20508;-56
2021/11/07 08:21:55;;;;;;;9.95;2.47;;;22.70;52.90;;;;;;5214706;28;20081;-52
2021/11/07 08:24:28;;;;;;;8.45;3.05;;;22.70;53.30;;;;;;5225267;28;20078;-54
2021/11/07 08:27:03;;;;;;;9.65;2.88;;;22.70;53.00;;;;;;5221680;28;20688;-57
2021/11/07 08:29:36;;;;;;;7.53;2.70;;;22.70;53.00;;;;;;5211521;28;20582;-56
2021/11/07 08:32:09;;;;;;;9.73;2.65;;;22.70;53.00;;;;;;5204353;28;20043;-52
2021/11/07 08:34:41;;;;;;;6.60;2.83;;;22.70;53.00;;;;;;5184707;28;20046;-54
2021/11/07 08:37:15;;;;;;;6.63;2.33;;;22.70;53.10;;;;;;5214191;28;20498;-57
2021/11/07 08:39:51;;;;;;;7.13;2.50;;;22.70;53.10;;;;;;5191839;28;20305;-55
2021/11/07 09:05:10;;;;;;;16.80;3.80;;;22.70;53.00;;;;;;5192664;28;20055;-57
2021/11/07 09:10:32;;;;;;;16.55;3.10;;;22.80;52.70;;;;;;5206497;28;20056;-59
2021/11/07 09:13:06;;;;;;;6.88;2.55;;;22.80;52.50;;;;;;5201696;28;20035;-56
2021/11/07 09:15:42;;;;;;;9.65;2.03;;;22.80;52.30;;;;;;5230418;28;20050;-56
2021/11/07 09:18:17;;;;;;;17.83;2.85;;;22.80;52.10;;;;;;5240997;28;20055;-59
2021/11/07 09:20:57;;;;;;;9.38;2.30;;;22.70;51.90;;;;;;5236219;28;20044;-59
2021/11/07 09:23:38;;;;;;;6.63;2.40;;;22.80;51.90;;;;;;5237706;28;20044;-58
2021/11/07 09:31:35;;;;;;;4.65;2.30;;;22.70;51.60;;;;;;5254272;28;20070;-57
2021/11/07 09:34:40;;;;;;;8.93;2.28;;;22.80;51.60;;;;;;5254727;28;20051;-57
2021/11/07 09:37:07;;;;;;;8.57;2.17;;;22.70;52.10;;;;;;5239952;28;20040;-57
2021/11/07 09:39:49;;;;;;;5.50;2.35;;;22.70;51.40;;;;;;5242708;28;20546;-53
2021/11/07 09:45:23;;;;;;;3.22;2.10;;;22.70;51.30;;;;;;5248699;28;20074;-58
2021/11/07 09:48:08;;;;;;;6.53;2.00;;;22.70;51.20;;;;;;5248366;28;20492;-57
2021/11/07 09:50:44;;;;;;;9.57;2.97;;;22.70;51.10;;;;;;5252907;28;20536;-59
2021/11/07 09:53:17;;;;;;;4.10;2.17;;;22.80;51.10;;;;;;5259048;28;20040;-59
2021/11/07 09:55:52;;;;;;;14.30;2.40;;;22.80;51.00;;;;;;5231945;28;20059;-55
2021/11/07 09:58:24;;;;;;;3.15;1.90;;;22.80;50.80;;;;;;5256661;28;20574;-56
2021/11/07 10:00:58;;;;;;;6.60;2.40;;;22.80;50.80;;;;;;5240579;28;20415;-57
2021/11/07 10:03:32;;;;;;;;;;;22.80;50.80;;;;;;5237254;28;20328;-51
2021/11/07 10:06:21;;;;;;;4.88;2.58;;;22.70;50.70;;;;;;5237258;28;20410;-58
2021/11/07 10:08:55;;;;;;;3.15;2.03;;;22.70;50.70;;;;;;5258051;28;20141;-56
2021/11/07 10:11:33;;;;;;;3.33;2.08;;;22.70;50.60;;;;;;5239515;28;20130;-54
2021/11/07 10:14:18;;;;;;;4.40;2.35;;;22.80;50.60;;;;;;5224039;28;20661;-57
2021/11/07 10:16:53;;;;;;;5.03;2.13;;;22.80;50.40;;;;;;5237539;28;20046;-58
2021/11/07 10:19:37;;;;;;;4.22;2.03;;;22.80;50.40;;;;;;5244440;28;20043;-55
2021/11/07 10:22:21;;;;;;;5.18;2.10;;;22.80;50.40;;;;;;5247675;28;20118;-53
2021/11/07 10:24:56;;;;;;;3.80;1.98;;;22.80;50.20;;;;;;5246484;28;20054;-57
2021/11/07 10:27:37;;;;;;;4.97;2.40;;;22.80;50.20;;;;;;5253407;28;20047;-55
2021/11/07 10:30:15;;;;;;;3.65;1.90;;;22.80;50.80;;;;;;5243805;28;20059;-57
2021/11/07 10:32:58;;;;;;;7.10;2.03;;;22.90;50.10;;;;;;5251118;28;20575;-57
2021/11/07 10:41:45;;;;;;;5.72;2.28;;;22.90;50.10;;;;;;5231007;28;20059;-57
2021/11/07 10:53:12;;;;;;;11.50;1.75;;;22.90;50.20;;;;;;5239383;28;20205;-58
2021/11/07 10:55:50;;;;;;;4.10;2.05;;;23.00;50.20;;;;;;5243733;28;20043;-55
2021/11/07 10:58:35;;;;;;;13.02;2.13;;;23.00;50.50;;;;;;5215839;28;21304;-54
2021/11/07 11:01:10;;;;;;;10.65;2.30;;;23.00;50.60;;;;;;5249898;28;20044;-55
2021/11/07 11:03:45;;;;;;;12.73;2.55;;;23.00;50.50;;;;;;5238601;28;20141;-58
2021/11/07 11:06:17;;;;;;;8.18;2.15;;;23.00;50.50;;;;;;5253692;28;20047;-57
2021/11/07 11:08:56;;;;;;;4.18;1.98;;;23.10;50.60;;;;;;5253150;28;20416;-56
2021/11/07 11:11:43;;;;;;;3.15;1.73;;;23.10;50.60;;;;;;5251485;28;20414;-56
2021/11/07 11:14:28;;;;;;;5.85;2.05;;;23.10;50.50;;;;;;5243275;28;20074;-57
2021/11/07 11:17:29;;;;;;;4.78;1.60;;;23.10;50.60;;;;;;5253032;28;20059;-57
2021/11/07 11:20:24;;;;;;;4.70;2.13;;;23.20;50.60;;;;;;5251541;28;20051;-57
2021/11/07 11:23:07;;;;;;;2.95;1.60;;;23.20;50.40;;;;;;5253461;28;20040;-57
2021/11/07 11:25:47;;;;;;;5.93;2.37;;;23.20;50.40;;;;;;5253745;28;20044;-58
2021/11/07 11:28:36;;;;;;;6.10;1.65;;;23.30;50.30;;;;;;5248647;28;20043;-56
2021/11/07 11:31:24;;;;;;;4.10;1.60;;;23.40;50.20;;;;;;5256508;28;20044;-53
2021/11/07 11:33:58;;;;;;;5.55;1.60;;;23.50;50.40;;;;;;5238729;28;20580;-54
2021/11/07 11:36:35;;;;;;;9.88;1.80;;;23.60;50.30;;;;;;5250293;28;20520;-51
2021/11/07 11:39:15;;;;;;;6.43;1.80;;;23.70;50.30;;;;;;5254024;28;20050;-56
2021/11/07 11:41:59;;;;;;;8.90;2.03;;;23.70;50.40;;;;;;5245608;28;20048;-53
2021/11/07 11:44:33;;;;;;;5.22;1.48;;;23.70;50.30;;;;;;5225877;28;20044;-57
2021/11/07 11:47:52;;;;;;;8.00;1.80;;;23.70;50.30;;;;;;5245057;28;20484;-57
2021/11/07 11:50:53;;;;;;;3.90;1.70;;;23.70;50.30;;;;;;5239580;28;20047;-55
2021/11/07 11:59:04;;;;;;;5.55;1.70;;;23.60;50.30;;;;;;5244931;28;20040;-57
2021/11/07 12:01:48;;;;;;;2.47;1.38;;;23.60;50.40;;;;;;5239426;28;20241;-57
2021/11/07 12:04:36;;;;;;;3.13;1.67;;;23.60;50.40;;;;;;5230254;28;20055;-57
2021/11/07 12:07:21;;;;;;;3.63;1.35;;;23.50;50.40;;;;;;5246340;27;20050;-52
2021/11/07 12:09:59;;;;;;;5.25;1.67;;;23.50;50.40;;;;;;5250326;27;20048;-55
2021/11/07 12:12:50;;;;;;;7.03;2.40;;;23.50;50.40;;;;;;5241692;28;20044;-59
2021/11/07 12:18:07;;;;;;;2.00;1.50;;;23.40;50.40;;;;;;5241381;28;20047;-57
2021/11/07 12:20:41;;;;;;;8.23;2.15;;;23.40;50.40;;;;;;5238876;28;20076;-57
2021/11/07 12:23:30;;;;;;;5.38;1.92;;;23.40;50.50;;;;;;5239785;28;20444;-56
2021/11/07 12:26:30;;;;;;;6.07;1.80;;;23.40;50.60;;;;;;5229380;27;20043;-54
2021/11/07 12:29:03;;;;;;;3.20;1.45;;;23.40;50.60;;;;;;5232087;28;20829;-58
2021/11/07 12:31:59;;;;;;;5.18;1.50;;;23.40;50.60;;;;;;5229141;28;20038;-57
2021/11/07 12:34:55;;;;;;;4.80;1.60;;;23.40;50.60;;;;;;5237248;28;21068;-54
2021/11/07 12:40:49;;;;;;;3.95;1.33;;;23.40;50.70;;;;;;5227669;28;20251;-58
2021/11/07 12:43:31;;;;;;;2.63;1.67;;;23.50;50.60;;;;;;5237264;28;20052;-58
2021/11/07 12:46:42;;;;;;;6.82;1.90;;;23.70;50.20;;;;;;5243479;28;20147;-57
2021/11/07 12:49:14;;;;;;;4.65;1.60;;;23.70;50.10;;;;;;5237623;28;20074;-59
2021/11/07 12:52:16;;;;;;;5.85;1.52;;;23.80;50.00;;;;;;5243087;28;20907;-55
2021/11/07 12:54:49;;;;;;;7.82;2.05;;;23.70;50.00;;;;;;5221826;28;20058;-57
2021/11/07 12:57:23;;;;;;;6.95;1.40;;;23.80;50.10;;;;;;5237012;28;20070;-56
2021/11/07 12:59:58;;;;;;;6.80;1.50;;;23.70;50.10;;;;;;5237755;28;20043;-58
2021/11/07 13:02:32;;;;;;;4.93;1.55;;;23.80;50.00;;;;;;5239836;28;20070;-57
2021/11/07 13:05:11;;;;;;;5.70;1.60;;;23.80;50.00;;;;;;5243623;28;20048;-54
2021/11/07 13:13:41;;;;;;;5.00;2.58;;;26.40;46.50;;;;;;5249756;28;20055;-54
2021/11/07 13:19:43;;;;;;;3.30;2.08;;;29.40;41.90;;;;;;5248583;28;20039;-59
2021/11/07 13:25:17;;;;;;;3.10;2.30;;;30.30;40.50;;;;;;5249467;28;20051;-53
2021/11/07 13:27:55;;;;;;;;;;;30.40;40.20;;;;;;5233579;28;20064;-57
2021/11/07 13:30:32;;;;;;;6.97;2.35;;;30.40;40.20;;;;;;5237965;28;20283;-53
2021/11/07 13:33:04;;;;;;;3.03;2.50;;;30.40;40.40;;;;;;5247178;28;20491;-59
2021/11/07 13:35:37;;;;;;;2.47;2.30;;;30.90;39.60;;;;;;5232691;28;20051;-56
2021/11/07 13:38:14;;;;;;;3.15;2.55;;;31.20;39.20;;;;;;5236467;28;21016;-56
2021/11/07 13:40:46;;;;;;;5.25;3.42;;;31.40;38.90;;;;;;5232046;28;20051;-58
2021/11/07 13:43:26;;;;;;;5.43;2.17;;;30.90;39.20;;;;;;5234279;28;20070;-55
2021/11/07 13:46:04;;;;;;;2.80;1.13;;;29.60;40.80;;;;;;5232640;28;20043;-57
2021/11/07 13:48:37;;;;;;;2.78;1.30;;;28.50;42.00;;;;;;5209785;28;20054;-59
2021/11/07 13:51:10;;;;;;;2.97;1.00;;;27.90;43.10;;;;;;5236469;28;20055;-54
2021/11/07 13:53:42;;;;;;;1.73;1.20;;;27.40;43.80;;;;;;5250676;28;20647;-56
2021/11/07 13:56:15;;;;;;;2.40;1.27;;;27.00;44.20;;;;;;5249155;28;20048;-52
2021/11/07 13:58:47;;;;;;;1.75;1.00;;;26.80;43.80;;;;;;5246796;28;20044;-55
2021/11/07 14:01:21;;;;;;;2.70;1.10;;;26.80;43.20;;;;;;5236746;28;21133;-57
2021/11/07 14:03:54;;;;;;;2.80;0.90;;;26.90;42.80;;;;;;5245036;28;20044;-54
2021/11/07 14:06:34;;;;;;;2.13;1.10;;;27.00;42.40;;;;;;5238849;28;20043;-52
2021/11/07 14:09:07;;;;;;;1.45;0.85;;;27.00;42.20;;;;;;5233771;28;20055;-57
2021/11/07 14:11:40;;;;;;;2.45;1.50;;;26.90;42.10;;;;;;5218852;28;20051;-56
2021/11/07 14:14:13;;;;;;;2.03;0.80;;;26.80;42.10;;;;;;5251015;28;20048;-55
2021/11/07 14:16:55;;;;;;;;;;;26.70;42.60;;;;;;5244030;28;20043;-53
2021/11/07 14:19:28;;;;;;;5.85;1.23;;;26.50;42.80;;;;;;5213997;28;19924;-55
2021/11/07 14:22:13;;;;;;;2.97;1.20;;;26.30;43.30;;;;;;5217388;28;20051;-55
2021/11/07 14:24:46;;;;;;;1.70;1.00;;;26.20;43.50;;;;;;5218035;28;20051;-56
2021/11/07 14:27:31;;;;;;;2.63;1.10;;;26.00;43.80;;;;;;5214328;28;20070;-55
2021/11/07 14:30:10;;;;;;;2.25;1.20;;;25.80;43.90;;;;;;5202582;28;20691;-58
2021/11/07 14:32:44;;;;;;;7.35;1.63;;;25.70;44.10;;;;;;5194337;28;21135;-59
2021/11/07 14:35:26;;;;;;;2.33;1.00;;;25.50;44.40;;;;;;5216295;28;20087;-57
2021/11/07 14:41:07;;;;;;;6.05;1.20;;;25.30;44.80;;;;;;5210875;27;20059;-57
2021/11/07 14:55:27;;;;;;;2.17;1.08;;;24.70;45.90;;;;;;5158996;28;20225;-60
2021/11/07 14:58:20;;;;;;;2.55;0.90;;;24.60;46.00;;;;;;5190704;28;20059;-59
2021/11/07 15:01:18;;;;;;;2.65;1.08;;;24.60;46.20;;;;;;5203886;28;20055;-55
2021/11/07 15:06:57;;;;;;;2.88;1.27;;;24.40;46.60;;;;;;5221659;28;20394;-57
2021/11/07 15:09:41;;;;;;;1.70;1.13;;;24.40;46.80;;;;;;5215121;28;20036;-51
2021/11/07 15:12:28;;;;;;;1.60;1.17;;;24.30;46.80;;;;;;5213672;28;20055;-59
2021/11/07 15:15:33;;;;;;;2.85;1.08;;;24.20;47.00;;;;;;5203273;28;20676;-59
2021/11/07 15:18:27;;;;;;;2.38;1.00;;;24.20;47.10;;;;;;5210781;28;20625;-57
2021/11/07 15:21:27;;;;;;;3.28;1.00;;;24.10;47.20;;;;;;5213746;28;20039;-53
2021/11/07 15:24:02;;;;;;;1.85;1.00;;;24.00;47.30;;;;;;5187350;27;20040;-56
2021/11/07 15:26:43;;;;;;;1.35;0.88;;;24.00;47.50;;;;;;5171785;28;20074;-60
2021/11/07 15:29:20;;;;;;;3.45;0.85;;;23.90;47.60;;;;;;5203055;28;20044;-56
2021/11/07 15:32:19;;;;;;;6.35;1.15;;;23.90;47.70;;;;;;5208231;28;20068;-58
2021/11/07 15:34:51;;;;;;;2.83;1.30;;;23.80;47.80;;;;;;5210609;28;20842;-54
2021/11/07 15:37:29;;;;;;;6.53;1.40;;;23.80;48.00;;;;;;5211287;28;20052;-58
2021/11/07 15:40:05;;;;;;;2.50;1.20;;;23.70;48.20;;;;;;5250949;28;20043;-60
2021/11/07 15:42:40;;;;;;;5.45;1.05;;;23.70;48.30;;;;;;5251935;28;20051;-57
2021/11/07 15:45:18;;;;;;;4.68;0.98;;;23.70;48.40;;;;;;5234384;28;20036;-56
2021/11/07 15:56:11;;;;;;;3.40;0.90;;;23.60;48.50;;;;;;5236639;28;20048;-58